Time;durP1;ratioP1;P1;durP2;ratioP2;P2;SDS_P1;SDS_P2;PMS_P1;PMS_P2;Temp;Humidity;BMP_temperature;BMP_pressure;BME280_temperature;BME280_humidity;BME280_pressure;Samples;Min_cycle;Max_cycle;Signal;HPM_P1;HPM_P2
2023/05/01 00:00:50;;;;;;;12.47;4.77;;;;;;;;;;5013280;28;20445;-76
2023/05/01 00:03:17;;;;;;;8.10;4.50;;;;;;;;;;5013204;28;20831;-76
2023/05/01 00:05:46;;;;;;;10.53;4.80;;;;;;;;;;5030488;28;20437;-76
2023/05/01 00:08:13;;;;;;;8.73;4.17;;;;;;;;;;5030417;28;20959;-76
2023/05/01 00:10:39;;;;;;;10.67;4.70;;;;;;;;;;5030184;28;20964;-75
2023/05/01 00:13:06;;;;;;;9.70;5.30;;;;;;;;;;5012189;28;20454;-75
2023/05/01 00:15:33;;;;;;;12.83;5.20;;;;;;;;;;5029911;28;20454;-75
2023/05/01 00:18:00;;;;;;;9.53;5.00;;;;;;;;;;5013577;28;20477;-75
2023/05/01 00:20:28;;;;;;;8.37;5.00;;;;;;;;;;5029838;28;20446;-76
2023/05/01 00:22:55;;;;;;;13.07;5.73;;;;;;;;;;5026831;28;21032;-75
2023/05/01 00:25:25;;;;;;;11.30;5.23;;;;;;;;;;5006808;28;20445;-78
2023/05/01 00:27:53;;;;;;;11.43;4.97;;;;;;;;;;5011745;28;20544;-75
2023/05/01 00:30:20;;;;;;;9.70;4.63;;;;;;;;;;5012128;28;20533;-75
2023/05/01 00:32:46;;;;;;;11.53;4.70;;;;;;;;;;5031138;28;20428;-75
2023/05/01 00:35:13;;;;;;;10.20;4.70;;;;;;;;;;5030192;28;20449;-75
2023/05/01 00:37:40;;;;;;;11.60;5.13;;;;;;;;;;5029687;28;20469;-76
2023/05/01 00:40:07;;;;;;;13.20;5.27;;;;;;;;;;5011701;28;20458;-76
2023/05/01 00:42:34;;;;;;;11.00;4.87;;;;;;;;;;5012116;28;20445;-75
2023/05/01 00:45:01;;;;;;;11.17;4.70;;;;;;;;;;4994577;28;20563;-76
2023/05/01 00:48:05;;;;;;;8.93;4.63;;;;;;;;;;4996663;28;20841;-76
2023/05/01 00:50:33;;;;;;;13.20;4.80;;;;;;;;;;5029346;28;20449;-76
2023/05/01 00:52:59;;;;;;;9.53;4.70;;;;;;;;;;5011821;28;20887;-76
2023/05/01 00:55:26;;;;;;;8.97;5.07;;;;;;;;;;5027219;28;20565;-76
2023/05/01 00:57:54;;;;;;;10.63;4.57;;;;;;;;;;4995584;28;20460;-76
2023/05/01 01:00:23;;;;;;;8.43;4.57;;;;;;;;;;4995546;28;21020;-76
2023/05/01 01:02:50;;;;;;;8.13;4.80;;;;;;;;;;5012518;28;20438;-76
2023/05/01 01:05:17;;;;;;;10.37;5.30;;;;;;;;;;5029016;28;20962;-77
2023/05/01 01:07:54;;;;;;;13.17;6.23;;;;;;;;;;4994433;28;20453;-79
2023/05/01 01:10:29;;;;;;;15.80;6.57;;;;;;;;;;5010220;28;20449;-78
2023/05/01 01:13:03;;;;;;;12.83;6.00;;;;;;;;;;5010311;28;20462;-78
2023/05/01 01:15:30;;;;;;;11.13;5.57;;;;;;;;;;5029234;28;20459;-78
2023/05/01 01:17:57;;;;;;;12.30;5.97;;;;;;;;;;5029413;28;21203;-78
2023/05/01 01:20:34;;;;;;;12.43;6.30;;;;;;;;;;5029333;28;20450;-78
2023/05/01 01:23:20;;;;;;;13.73;5.70;;;;;;;;;;5013029;28;20449;-78
2023/05/01 01:25:59;;;;;;;11.93;6.07;;;;;;;;;;5018288;28;20460;-78
2023/05/01 01:28:39;;;;;;;12.77;5.77;;;;;;;;;;5029049;28;20453;-78
2023/05/01 01:31:13;;;;;;;12.73;5.80;;;;;;;;;;4995230;28;20541;-78
2023/05/01 01:33:44;;;;;;;10.37;5.40;;;;;;;;;;4989941;28;20463;-78
2023/05/01 01:36:14;;;;;;;13.27;6.30;;;;;;;;;;5023233;28;20496;-78
2023/05/01 01:38:42;;;;;;;12.03;6.40;;;;;;;;;;5029839;28;20508;-78
2023/05/01 01:41:11;;;;;;;10.70;5.40;;;;;;;;;;5025972;28;20811;-79
2023/05/01 02:15:57;;;;;;;10.23;5.50;;;;;;;;;;4728042;28;20515;-77
2023/05/01 02:18:28;;;;;;;7.87;5.30;;;;;;;;;;5011582;28;20505;-78
2023/05/01 02:20:57;;;;;;;10.73;6.20;;;;;;;;;;5011615;28;20442;-78
2023/05/01 02:23:26;;;;;;;11.73;5.80;;;;;;;;;;5007009;28;20454;-78
2023/05/01 02:25:53;;;;;;;10.40;5.70;;;;;;;;;;5009934;28;20454;-78
2023/05/01 02:28:21;;;;;;;11.20;5.57;;;;;;;;;;4994618;28;21169;-78
2023/05/01 02:30:48;;;;;;;11.60;5.73;;;;;;;;;;4993169;28;20457;-78
2023/05/01 02:33:15;;;;;;;10.27;6.07;;;;;;;;;;5027908;28;20460;-78
2023/05/01 02:35:42;;;;;;;11.97;6.33;;;;;;;;;;5027401;28;20454;-78
2023/05/01 02:38:11;;;;;;;14.60;6.57;;;;;;;;;;5010878;28;20906;-78
2023/05/01 02:40:38;;;;;;;14.80;7.30;;;;;;;;;;5026744;28;21397;-78
2023/05/01 02:43:06;;;;;;;12.70;6.93;;;;;;;;;;4993919;28;20461;-78
2023/05/01 02:45:33;;;;;;;15.80;6.97;;;;;;;;;;4998222;28;20585;-78
2023/05/01 02:48:01;;;;;;;14.30;6.77;;;;;;;;;;5001877;28;20501;-78
2023/05/01 02:50:28;;;;;;;15.80;7.23;;;;;;;;;;5014343;28;20460;-78
2023/05/01 02:52:54;;;;;;;12.13;6.90;;;;;;;;;;5009326;28;20449;-78
2023/05/01 02:55:48;;;;;;;15.00;7.30;;;;;;;;;;5011807;28;20469;-78
2023/05/01 02:58:15;;;;;;;13.87;7.17;;;;;;;;;;5010056;28;20522;-78
2023/05/01 03:00:44;;;;;;;9.93;6.23;;;;;;;;;;5008581;28;20974;-78
2023/05/01 03:03:11;;;;;;;11.70;6.80;;;;;;;;;;5010305;28;20544;-78
2023/05/01 03:05:38;;;;;;;14.57;7.47;;;;;;;;;;5009009;28;20462;-78
2023/05/01 03:08:07;;;;;;;16.47;6.97;;;;;;;;;;5027453;28;20533;-78
2023/05/01 03:10:34;;;;;;;11.83;7.07;;;;;;;;;;5009973;28;20466;-78
2023/05/01 03:13:00;;;;;;;16.90;6.87;;;;;;;;;;5009650;28;20465;-78
2023/05/01 03:15:31;;;;;;;12.53;6.87;;;;;;;;;;5026386;28;20474;-78
2023/05/01 03:17:58;;;;;;;14.87;7.30;;;;;;;;;;5027593;28;20512;-78
2023/05/01 03:20:24;;;;;;;12.57;6.87;;;;;;;;;;5027749;28;20485;-78
2023/05/01 03:22:53;;;;;;;17.57;6.03;;;;;;;;;;5009915;28;20474;-78
2023/05/01 03:25:20;;;;;;;12.77;7.00;;;;;;;;;;5010115;28;20537;-79
2023/05/01 03:27:47;;;;;;;11.70;6.40;;;;;;;;;;4994409;28;20449;-78
2023/05/01 03:30:15;;;;;;;13.23;6.97;;;;;;;;;;5027064;28;20442;-78
2023/05/01 03:32:42;;;;;;;15.27;7.60;;;;;;;;;;5010413;28;20450;-78
2023/05/01 03:35:16;;;;;;;10.93;6.47;;;;;;;;;;5010026;28;20882;-78
2023/05/01 03:37:43;;;;;;;13.53;6.50;;;;;;;;;;5027627;28;20516;-78
2023/05/01 03:40:17;;;;;;;13.57;7.30;;;;;;;;;;5009516;28;20972;-78
2023/05/01 03:43:05;;;;;;;13.00;7.13;;;;;;;;;;5009972;28;20438;-78
2023/05/01 03:45:32;;;;;;;18.30;7.60;;;;;;;;;;5025798;28;20488;-79
2023/05/01 03:47:59;;;;;;;13.57;7.73;;;;;;;;;;5002158;28;20453;-79
2023/05/01 03:50:26;;;;;;;14.37;7.07;;;;;;;;;;5010545;28;20516;-78
2023/05/01 03:52:53;;;;;;;11.33;7.07;;;;;;;;;;5011007;28;20488;-79
2023/05/01 03:55:21;;;;;;;13.50;7.03;;;;;;;;;;5002430;28;20453;-78
2023/05/01 03:57:51;;;;;;;12.00;6.63;;;;;;;;;;4989782;28;20458;-76
2023/05/01 04:00:23;;;;;;;16.00;7.47;;;;;;;;;;5005946;28;20470;-78
2023/05/01 04:02:49;;;;;;;13.97;6.83;;;;;;;;;;5007336;28;20500;-78
2023/05/01 04:05:21;;;;;;;14.03;7.40;;;;;;;;;;5006537;28;20453;-78
2023/05/01 04:07:52;;;;;;;15.87;9.10;;;;;;;;;;4993291;28;20441;-77
2023/05/01 04:10:21;;;;;;;14.97;7.53;;;;;;;;;;5026466;28;21492;-84
2023/05/01 04:12:54;;;;;;;14.07;7.73;;;;;;;;;;4994804;28;20446;-83
2023/05/01 04:15:21;;;;;;;11.90;7.33;;;;;;;;;;5023938;28;20476;-76
2023/05/01 04:17:49;;;;;;;12.23;6.97;;;;;;;;;;5011327;28;20469;-77
2023/05/01 04:20:18;;;;;;;12.30;7.00;;;;;;;;;;4993647;28;20485;-77
2023/05/01 04:22:46;;;;;;;10.60;6.57;;;;;;;;;;5026422;28;20968;-76
2023/05/01 04:25:13;;;;;;;10.87;6.30;;;;;;;;;;5008389;28;20549;-77
2023/05/01 04:27:40;;;;;;;10.97;6.70;;;;;;;;;;5011360;28;20198;-79
2023/05/01 04:30:09;;;;;;;10.17;6.23;;;;;;;;;;4994665;28;20195;-78
2023/05/01 04:32:37;;;;;;;11.60;5.90;;;;;;;;;;5012168;28;20206;-79
2023/05/01 04:35:05;;;;;;;10.27;6.73;;;;;;;;;;4990705;28;20215;-74
2023/05/01 04:37:34;;;;;;;7.77;5.67;;;;;;;;;;5032219;28;20207;-76
2023/05/01 04:40:04;;;;;;;10.00;5.77;;;;;;;;;;5019281;28;20874;-76
2023/05/01 04:42:36;;;;;;;15.47;6.67;;;;;;;;;;4985979;28;20208;-75
2023/05/01 04:45:10;;;;;;;14.07;6.13;;;;;;;;;;5026191;28;20199;-75
2023/05/01 04:47:37;;;;;;;10.17;6.23;;;;;;;;;;5011108;28;20485;-77
2023/05/01 04:50:07;;;;;;;10.50;5.77;;;;;;;;;;5028293;28;20860;-80
2023/05/01 04:52:34;;;;;;;11.27;6.50;;;;;;;;;;5028599;28;20215;-80
2023/05/01 04:55:11;;;;;;;11.67;5.77;;;;;;;;;;5009898;28;20219;-77
2023/05/01 04:57:56;;;;;;;13.60;6.20;;;;;;;;;;5015180;28;20453;-81
2023/05/01 05:00:23;;;;;;;8.50;5.37;;;;;;;;;;5007480;28;20305;-80
2023/05/01 05:02:55;;;;;;;11.70;5.23;;;;;;;;;;5012483;28;20515;-80
2023/05/01 05:05:26;;;;;;;11.50;5.57;;;;;;;;;;5025282;28;20198;-81
2023/05/01 05:07:53;;;;;;;9.33;5.33;;;;;;;;;;5025832;28;20214;-80
2023/05/01 05:10:29;;;;;;;11.17;5.13;;;;;;;;;;5010354;28;20230;-80
2023/05/01 05:13:19;;;;;;;11.47;5.17;;;;;;;;;;5028939;28;20211;-85
2023/05/01 05:15:57;;;;;;;17.63;5.80;;;;;;;;;;5001723;28;21051;-83
2023/05/01 05:18:27;;;;;;;10.73;5.00;;;;;;;;;;4973988;28;20667;-83
2023/05/01 05:20:57;;;;;;;8.40;5.17;;;;;;;;;;4989579;28;20675;-83
2023/05/01 05:23:26;;;;;;;11.33;5.20;;;;;;;;;;4957524;28;20271;-82
2023/05/01 05:25:53;;;;;;;12.27;5.87;;;;;;;;;;4973765;28;20452;-82
2023/05/01 05:28:27;;;;;;;16.93;6.37;;;;;;;;;;4988692;28;20661;-83
2023/05/01 05:30:56;;;;;;;10.47;5.67;;;;;;;;;;4957959;28;20472;-85
2023/05/01 05:33:27;;;;;;;12.07;5.93;;;;;;;;;;4970985;28;20256;-79
2023/05/01 05:35:57;;;;;;;13.17;6.53;;;;;;;;;;4968673;28;20547;-79
2023/05/01 05:38:26;;;;;;;9.00;5.40;;;;;;;;;;4969259;28;20201;-79
2023/05/01 05:40:58;;;;;;;12.10;5.90;;;;;;;;;;4986860;28;20860;-78
2023/05/01 05:43:25;;;;;;;11.03;5.53;;;;;;;;;;4986637;28;20217;-79
2023/05/01 05:45:57;;;;;;;10.27;5.00;;;;;;;;;;4986341;28;20530;-79
2023/05/01 05:48:25;;;;;;;11.33;6.00;;;;;;;;;;4986516;28;20451;-80
2023/05/01 05:50:53;;;;;;;10.50;5.87;;;;;;;;;;4985726;28;20247;-80
2023/05/01 05:53:22;;;;;;;15.33;5.57;;;;;;;;;;4970405;28;20200;-75
2023/05/01 05:55:54;;;;;;;8.53;5.00;;;;;;;;;;4976829;28;20204;-82
2023/05/01 05:58:23;;;;;;;13.23;6.03;;;;;;;;;;4983793;28;20627;-77
2023/05/01 06:00:52;;;;;;;13.13;5.80;;;;;;;;;;4985421;28;20217;-78
2023/05/01 06:03:19;;;;;;;11.03;5.50;;;;;;;;;;4995661;28;20698;-72
2023/05/01 06:05:46;;;;;;;11.00;5.33;;;;;;;;;;5007005;28;20443;-70
2023/05/01 06:08:13;;;;;;;14.77;6.20;;;;;;;;;;5008162;28;20200;-71
2023/05/01 06:10:41;;;;;;;10.77;5.53;;;;;;;;;;4987949;28;20250;-71
2023/05/01 06:13:09;;;;;;;8.10;5.03;;;;;;;;;;5007513;28;20188;-71
2023/05/01 06:15:44;;;;;;;7.73;4.47;;;;;;;;;;5010260;28;20241;-71
2023/05/01 06:18:12;;;;;;;10.60;4.80;;;;;;;;;;4993861;28;20195;-71
2023/05/01 06:20:39;;;;;;;9.43;3.97;;;;;;;;;;5026448;28;20310;-71
2023/05/01 06:23:08;;;;;;;10.20;3.60;;;;;;;;;;5009630;28;20219;-71
2023/05/01 06:25:57;;;;;;;7.87;3.47;;;;;;;;;;5025836;28;20204;-71
2023/05/01 06:28:24;;;;;;;10.90;4.43;;;;;;;;;;5028150;28;20222;-71
2023/05/01 06:30:51;;;;;;;7.73;3.70;;;;;;;;;;5010341;28;20195;-71
2023/05/01 06:33:18;;;;;;;9.57;3.17;;;;;;;;;;5009207;28;20245;-72
2023/05/01 06:36:00;;;;;;;5.00;2.50;;;;;;;;;;5008554;28;20238;-72
2023/05/01 06:38:27;;;;;;;7.93;3.07;;;;;;;;;;5026871;28;20202;-70
2023/05/01 06:40:54;;;;;;;8.07;2.80;;;;;;;;;;5006818;28;20238;-70
2023/05/01 06:43:22;;;;;;;7.83;2.90;;;;;;;;;;5003520;28;20191;-71
2023/05/01 06:45:51;;;;;;;6.20;2.27;;;;;;;;;;5025903;28;20184;-71
2023/05/01 06:48:18;;;;;;;8.33;2.50;;;;;;;;;;5007780;28;20942;-70
2023/05/01 06:50:45;;;;;;;6.73;2.43;;;;;;;;;;5022641;28;20223;-71
2023/05/01 06:53:13;;;;;;;5.43;2.43;;;;;;;;;;5001110;28;20192;-70
2023/05/01 06:55:39;;;;;;;7.60;2.70;;;;;;;;;;5008178;28;20667;-70
2023/05/01 06:58:06;;;;;;;6.20;2.20;;;;;;;;;;5008273;28;20257;-71
2023/05/01 07:00:49;;;;;;;7.97;2.63;;;;;;;;;;5011999;28;20682;-68
2023/05/01 07:03:16;;;;;;;5.43;2.47;;;;;;;;;;5011382;28;20202;-69
2023/05/01 07:05:44;;;;;;;5.70;2.20;;;;;;;;;;5027210;28;20203;-69
2023/05/01 07:08:10;;;;;;;7.83;2.50;;;;;;;;;;5008668;28;20202;-69
2023/05/01 07:10:38;;;;;;;5.17;2.13;;;;;;;;;;5026344;28;20183;-69
2023/05/01 07:13:08;;;;;;;6.50;2.30;;;;;;;;;;5023123;28;20210;-68
2023/05/01 07:15:35;;;;;;;6.57;2.00;;;;;;;;;;5026105;28;20227;-70
2023/05/01 07:18:04;;;;;;;7.07;2.70;;;;;;;;;;5009758;28;20193;-69
2023/05/01 07:20:32;;;;;;;5.47;2.23;;;;;;;;;;5008443;28;20211;-69
2023/05/01 07:22:59;;;;;;;5.20;1.90;;;;;;;;;;5024632;28;20256;-68
2023/05/01 07:25:27;;;;;;;5.03;2.03;;;;;;;;;;5026409;28;20191;-69
2023/05/01 07:27:53;;;;;;;5.10;2.00;;;;;;;;;;5026825;28;20299;-70
2023/05/01 07:30:20;;;;;;;8.30;2.20;;;;;;;;;;5026087;28;20218;-70
2023/05/01 07:32:47;;;;;;;7.70;2.50;;;;;;;;;;5007750;28;20206;-70
2023/05/01 07:35:14;;;;;;;4.83;1.90;;;;;;;;;;5025846;28;20191;-69
2023/05/01 07:37:40;;;;;;;4.90;1.90;;;;;;;;;;5026237;28;20191;-68
2023/05/01 07:40:10;;;;;;;7.50;2.37;;;;;;;;;;5017780;28;20208;-68
2023/05/01 07:42:38;;;;;;;5.20;2.33;;;;;;;;;;4990438;28;20705;-68
2023/05/01 07:45:06;;;;;;;5.57;2.20;;;;;;;;;;5014830;28;20203;-68
2023/05/01 07:47:33;;;;;;;5.77;2.13;;;;;;;;;;5027528;28;20192;-69
2023/05/01 07:50:00;;;;;;;4.93;2.20;;;;;;;;;;4993921;28;20558;-68
2023/05/01 07:52:27;;;;;;;4.80;2.07;;;;;;;;;;5007494;28;20267;-68
2023/05/01 07:54:54;;;;;;;5.43;2.10;;;;;;;;;;5010658;28;20242;-67
2023/05/01 07:57:23;;;;;;;6.13;2.23;;;;;;;;;;5010796;28;20204;-69
2023/05/01 07:59:54;;;;;;;7.67;2.23;;;;;;;;;;5011661;28;20212;-68
2023/05/01 08:02:21;;;;;;;4.87;2.10;;;;;;;;;;5011906;28;20192;-68
2023/05/01 08:04:48;;;;;;;6.63;2.40;;;;;;;;;;5009964;28;20280;-68
2023/05/01 08:07:15;;;;;;;6.37;2.10;;;;;;;;;;5011269;28;20184;-67
2023/05/01 08:09:42;;;;;;;5.93;2.10;;;;;;;;;;5009648;28;20184;-67
2023/05/01 08:12:12;;;;;;;5.57;2.70;;;;;;;;;;5008708;28;20219;-70
2023/05/01 08:14:40;;;;;;;5.97;2.50;;;;;;;;;;4993537;28;20192;-70
2023/05/01 08:17:11;;;;;;;5.67;2.50;;;;;;;;;;5027061;28;20290;-68
2023/05/01 08:19:38;;;;;;;7.70;2.67;;;;;;;;;;5031121;28;20301;-68
2023/05/01 08:22:05;;;;;;;5.60;2.53;;;;;;;;;;5030615;28;20191;-67
2023/05/01 08:24:32;;;;;;;9.03;2.40;;;;;;;;;;5030618;28;20190;-67
2023/05/01 08:26:59;;;;;;;6.73;2.37;;;;;;;;;;5028919;28;20204;-68
2023/05/01 08:29:26;;;;;;;6.50;2.60;;;;;;;;;;5027867;28;20191;-68
2023/05/01 08:31:57;;;;;;;4.57;2.27;;;;;;;;;;5030192;28;20660;-68
2023/05/01 08:34:24;;;;;;;6.17;2.50;;;;;;;;;;5028871;28;20192;-68
2023/05/01 08:36:50;;;;;;;4.33;2.13;;;;;;;;;;5024620;28;20191;-68
2023/05/01 08:39:17;;;;;;;8.50;2.30;;;;;;;;;;5027324;28;20654;-67
2023/05/01 08:41:45;;;;;;;5.87;2.30;;;;;;;;;;5030950;28;20218;-66
2023/05/01 08:44:12;;;;;;;6.00;2.23;;;;;;;;;;5032934;28;20192;-67
2023/05/01 08:46:44;;;;;;;4.97;2.03;;;;;;;;;;5032736;28;20618;-68
2023/05/01 08:49:12;;;;;;;5.97;2.20;;;;;;;;;;5030546;28;20215;-68
2023/05/01 08:51:38;;;;;;;5.77;2.07;;;;;;;;;;5015254;28;20191;-68
2023/05/01 08:54:07;;;;;;;4.57;2.10;;;;;;;;;;5032928;28;20665;-67
2023/05/01 08:56:34;;;;;;;6.23;2.43;;;;;;;;;;5030719;28;20662;-67
2023/05/01 08:59:04;;;;;;;7.07;2.33;;;;;;;;;;5033428;28;20187;-67
2023/05/01 09:01:32;;;;;;;4.03;1.83;;;;;;;;;;5031157;28;20241;-67
2023/05/01 09:04:00;;;;;;;6.03;2.43;;;;;;;;;;5032550;28;20198;-68
2023/05/01 09:06:28;;;;;;;6.40;2.13;;;;;;;;;;5013883;28;20279;-68
2023/05/01 09:08:56;;;;;;;6.03;2.60;;;;;;;;;;5030443;28;20546;-67
2023/05/01 09:11:23;;;;;;;5.13;2.47;;;;;;;;;;5029626;28;20278;-68
2023/05/01 09:13:50;;;;;;;5.87;2.20;;;;;;;;;;5032879;28;20187;-69
2023/05/01 09:16:17;;;;;;;4.30;2.40;;;;;;;;;;5003594;28;20232;-69
2023/05/01 09:18:44;;;;;;;6.07;2.30;;;;;;;;;;4994357;28;20208;-70
2023/05/01 09:21:12;;;;;;;5.63;2.53;;;;;;;;;;5011892;28;20227;-70
2023/05/01 09:23:39;;;;;;;5.30;2.53;;;;;;;;;;5011529;28;20207;-70
2023/05/01 09:26:06;;;;;;;5.27;2.37;;;;;;;;;;5011009;28;20203;-69
2023/05/01 09:28:40;;;;;;;8.27;3.00;;;;;;;;;;5012533;28;20192;-68
2023/05/01 09:31:20;;;;;;;6.77;2.73;;;;;;;;;;5012142;28;20198;-68
2023/05/01 09:33:50;;;;;;;5.57;2.43;;;;;;;;;;5008899;28;20204;-71
2023/05/01 09:36:17;;;;;;;6.03;2.50;;;;;;;;;;5009658;28;20220;-67
2023/05/01 09:38:44;;;;;;;6.43;2.63;;;;;;;;;;5009881;28;20188;-67
2023/05/01 09:41:11;;;;;;;6.10;2.30;;;;;;;;;;5002588;28;20226;-68
2023/05/01 09:43:37;;;;;;;4.87;2.30;;;;;;;;;;5008440;28;20607;-69
2023/05/01 09:46:08;;;;;;;4.47;1.93;;;;;;;;;;5007316;28;20258;-69
2023/05/01 09:48:37;;;;;;;6.60;2.80;;;;;;;;;;5009640;28;20203;-72
2023/05/01 09:51:27;;;;;;;7.53;2.47;;;;;;;;;;4990668;28;20196;-67
2023/05/01 09:53:58;;;;;;;7.23;2.50;;;;;;;;;;4999771;28;20215;-68
2023/05/01 09:56:28;;;;;;;7.17;2.50;;;;;;;;;;4965933;28;20823;-69
2023/05/01 09:58:56;;;;;;;4.37;2.23;;;;;;;;;;4989778;28;20197;-68
2023/05/01 10:01:38;;;;;;;5.13;2.20;;;;;;;;;;4989470;28;20220;-68
2023/05/01 10:04:08;;;;;;;6.67;2.20;;;;;;;;;;4989249;28;20209;-68
2023/05/01 10:06:35;;;;;;;3.93;1.97;;;;;;;;;;5003618;28;20663;-67
2023/05/01 10:09:02;;;;;;;6.60;2.10;;;;;;;;;;4991932;28;20186;-67
2023/05/01 10:11:29;;;;;;;6.23;2.00;;;;;;;;;;5008800;28;20255;-67
2023/05/01 10:14:07;;;;;;;4.00;1.80;;;;;;;;;;4990149;28;20192;-68
2023/05/01 10:16:34;;;;;;;4.80;1.83;;;;;;;;;;5003309;28;20227;-69
2023/05/01 10:19:06;;;;;;;4.80;2.27;;;;;;;;;;5011718;28;20191;-67
2023/05/01 10:21:58;;;;;;;3.20;2.00;;;;;;;;;;5028534;28;20374;-68
2023/05/01 10:24:26;;;;;;;3.23;1.80;;;;;;;;;;5028193;28;20304;-69
2023/05/01 10:26:52;;;;;;;4.03;1.90;;;;;;;;;;5010115;28;20187;-68
2023/05/01 10:29:19;;;;;;;5.20;1.80;;;;;;;;;;5009647;28;20199;-69
2023/05/01 10:31:47;;;;;;;4.93;1.80;;;;;;;;;;5011084;28;20186;-68
2023/05/01 10:34:15;;;;;;;3.73;1.70;;;;;;;;;;5026332;28;20203;-69
2023/05/01 10:36:43;;;;;;;6.07;1.87;;;;;;;;;;5023622;28;20206;-70
2023/05/01 10:39:30;;;;;;;5.53;2.00;;;;;;;;;;5026194;28;20203;-69
2023/05/01 10:41:57;;;;;;;5.20;2.00;;;;;;;;;;5008758;28;20548;-69
2023/05/01 10:44:28;;;;;;;4.30;1.73;;;;;;;;;;5025566;28;20202;-69
2023/05/01 10:46:55;;;;;;;4.50;2.00;;;;;;;;;;5023595;28;20199;-69
2023/05/01 10:49:22;;;;;;;4.40;1.70;;;;;;;;;;5026301;28;21119;-69
2023/05/01 10:51:58;;;;;;;3.90;2.00;;;;;;;;;;5010474;28;20172;-68
2023/05/01 10:54:25;;;;;;;19.03;9.97;;;;;;;;;;5024622;28;20187;-69
2023/05/01 10:56:53;;;;;;;4.67;1.80;;;;;;;;;;5018715;28;20241;-70
2023/05/01 10:59:20;;;;;;;4.73;1.90;;;;;;;;;;5010250;28;20210;-70
2023/05/01 11:01:48;;;;;;;3.23;2.03;;;;;;;;;;5010053;28;20697;-69
2023/05/01 11:04:20;;;;;;;2.80;1.70;;;;;;;;;;5010117;28;20203;-67
2023/05/01 11:07:09;;;;;;;5.57;2.17;;;;;;;;;;5026281;28;20202;-68
2023/05/01 11:09:40;;;;;;;4.90;2.00;;;;;;;;;;5023483;28;20223;-71
2023/05/01 11:12:07;;;;;;;3.67;1.73;;;;;;;;;;5026417;28;20203;-69
2023/05/01 11:14:53;;;;;;;9.90;4.33;;;;;;;;;;5010585;28;20187;-69
2023/05/01 11:17:38;;;;;;;5.60;2.53;;;;;;;;;;5028081;28;20728;-69
2023/05/01 11:20:09;;;;;;;8.20;3.50;;;;;;;;;;5026872;28;20187;-69
2023/05/01 11:22:36;;;;;;;4.47;2.23;;;;;;;;;;5026364;28;20188;-69
2023/05/01 11:25:03;;;;;;;6.77;2.50;;;;;;;;;;5006018;28;20191;-70
2023/05/01 11:27:30;;;;;;;3.73;2.27;;;;;;;;;;5029273;28;20191;-69
2023/05/01 11:29:58;;;;;;;3.90;1.60;;;;;;;;;;5032109;28;20183;-71
2023/05/01 11:32:26;;;;;;;4.67;2.77;;;;;;;;;;5029293;28;20236;-72
2023/05/01 11:34:53;;;;;;;4.67;1.70;;;;;;;;;;5031762;28;20271;-70
2023/05/01 11:37:40;;;;;;;6.97;1.70;;;;;;;;;;5014284;28;20191;-69
2023/05/01 11:40:17;;;;;;;5.27;3.20;;;;;;;;;;5011349;28;20794;-71
2023/05/01 11:42:44;;;;;;;4.37;1.90;;;;;;;;;;5013644;28;20199;-71
2023/05/01 11:45:11;;;;;;;3.93;1.70;;;;;;;;;;5030023;28;20921;-71
2023/05/01 11:47:40;;;;;;;4.73;1.70;;;;;;;;;;5013856;28;20184;-72
2023/05/01 11:50:07;;;;;;;6.43;2.50;;;;;;;;;;5008328;28;20195;-68
2023/05/01 11:52:44;;;;;;;2.30;1.70;;;;;;;;;;5025304;28;20245;-71
2023/05/01 11:55:11;;;;;;;3.53;1.73;;;;;;;;;;5012198;28;21018;-70
2023/05/01 11:58:04;;;;;;;5.70;1.80;;;;;;;;;;5031731;28;20440;-70
2023/05/01 12:00:32;;;;;;;4.13;1.80;;;;;;;;;;5007829;28;20230;-70
2023/05/01 12:02:59;;;;;;;5.50;1.67;;;;;;;;;;5031398;28;20188;-69
2023/05/01 12:05:27;;;;;;;5.90;2.07;;;;;;;;;;5021054;28;20191;-71
2023/05/01 12:08:17;;;;;;;5.57;2.17;;;;;;;;;;5010497;28;20184;-73
2023/05/01 12:10:45;;;;;;;3.30;1.60;;;;;;;;;;5017475;28;20234;-72
2023/05/01 12:13:12;;;;;;;2.87;1.60;;;;;;;;;;5026797;28;20960;-72
2023/05/01 12:15:43;;;;;;;5.10;1.97;;;;;;;;;;5003282;28;20228;-73
2023/05/01 12:18:11;;;;;;;3.00;1.50;;;;;;;;;;4985844;28;20200;-73
2023/05/01 12:20:41;;;;;;;3.40;1.53;;;;;;;;;;4962029;28;20807;-71
2023/05/01 12:23:09;;;;;;;5.13;1.77;;;;;;;;;;4971744;28;20738;-73
2023/05/01 12:25:38;;;;;;;3.33;1.67;;;;;;;;;;4994009;28;20216;-70
2023/05/01 12:28:09;;;;;;;3.10;1.17;;;;;;;;;;4978796;28;20841;-71
2023/05/01 12:30:36;;;;;;;2.07;1.40;;;;;;;;;;4996506;28;20204;-70
2023/05/01 12:33:11;;;;;;;5.03;1.70;;;;;;;;;;4972742;28;20181;-73
2023/05/01 12:35:44;;;;;;;3.97;1.63;;;;;;;;;;4984995;28;20663;-73
2023/05/01 12:38:11;;;;;;;2.93;1.53;;;;;;;;;;4973335;28;20244;-70
2023/05/01 12:40:39;;;;;;;2.30;1.60;;;;;;;;;;5005142;28;20252;-70
2023/05/01 12:43:06;;;;;;;4.20;2.00;;;;;;;;;;5006246;28;20195;-70
2023/05/01 12:45:37;;;;;;;3.40;1.70;;;;;;;;;;5004713;28;20199;-68
2023/05/01 12:48:13;;;;;;;4.87;2.30;;;;;;;;;;5000028;28;20192;-72
2023/05/01 12:50:41;;;;;;;6.20;2.60;;;;;;;;;;4976942;28;20708;-71
2023/05/01 12:53:09;;;;;;;4.47;2.00;;;;;;;;;;4970364;28;20189;-72
2023/05/01 12:55:46;;;;;;;2.07;1.30;;;;;;;;;;4982908;28;20203;-69
2023/05/01 12:58:13;;;;;;;4.27;1.80;;;;;;;;;;5005040;28;20849;-70
2023/05/01 13:00:47;;;;;;;3.80;1.50;;;;;;;;;;4976906;28;20208;-72
2023/05/01 13:03:16;;;;;;;2.20;1.23;;;;;;;;;;4996343;28;20188;-73
2023/05/01 13:05:58;;;;;;;2.10;1.30;;;;;;;;;;5003682;28;20189;-70
2023/05/01 13:08:29;;;;;;;3.27;1.50;;;;;;;;;;5006487;28;20200;-71
2023/05/01 13:10:57;;;;;;;5.23;1.67;;;;;;;;;;4985978;28;20235;-70
2023/05/01 13:13:24;;;;;;;3.10;1.50;;;;;;;;;;4988846;28;20204;-71
2023/05/01 13:16:23;;;;;;;3.17;1.40;;;;;;;;;;5011800;28;20273;-69
2023/05/01 13:18:54;;;;;;;3.63;1.40;;;;;;;;;;5025048;28;20213;-70
2023/05/01 13:21:21;;;;;;;2.17;1.50;;;;;;;;;;5005570;28;20223;-68
2023/05/01 13:23:52;;;;;;;3.80;1.67;;;;;;;;;;5010764;28;20217;-69
2023/05/01 13:26:24;;;;;;;2.50;1.30;;;;;;;;;;5012371;28;20203;-72
2023/05/01 13:28:50;;;;;;;3.93;1.50;;;;;;;;;;5027081;28;20191;-68
2023/05/01 13:31:17;;;;;;;2.37;1.57;;;;;;;;;;5009805;28;20666;-69
2023/05/01 13:33:44;;;;;;;2.43;1.67;;;;;;;;;;5028435;28;20188;-70
2023/05/01 13:36:12;;;;;;;3.27;1.30;;;;;;;;;;5025283;28;20195;-69
2023/05/01 13:38:54;;;;;;;5.07;1.73;;;;;;;;;;5028604;28;20203;-68
2023/05/01 13:41:23;;;;;;;4.90;1.30;;;;;;;;;;5027562;28;20219;-69
2023/05/01 13:43:50;;;;;;;4.60;1.40;;;;;;;;;;5029325;28;20179;-68
2023/05/01 13:46:18;;;;;;;3.07;1.60;;;;;;;;;;5029283;28;20267;-68
2023/05/01 13:48:46;;;;;;;1.47;1.37;;;;;;;;;;5025291;28;20249;-68
2023/05/01 13:51:15;;;;;;;2.77;1.40;;;;;;;;;;5022894;28;20278;-69
2023/05/01 13:53:41;;;;;;;2.73;1.20;;;;;;;;;;5010891;28;20206;-69
2023/05/01 13:56:14;;;;;;;3.10;1.83;;;;;;;;;;5029067;28;20602;-69
2023/05/01 13:58:41;;;;;;;4.30;1.60;;;;;;;;;;5025506;28;20201;-69
2023/05/01 14:01:14;;;;;;;2.60;1.33;;;;;;;;;;5008591;28;20235;-68
2023/05/01 14:03:41;;;;;;;2.03;1.50;;;;;;;;;;5004209;28;20196;-70
2023/05/01 14:06:11;;;;;;;3.73;1.50;;;;;;;;;;5023796;28;20682;-69
2023/05/01 14:08:45;;;;;;;2.23;1.50;;;;;;;;;;5025008;28;20708;-68
2023/05/01 14:11:12;;;;;;;4.57;1.60;;;;;;;;;;5020341;28;20302;-69
2023/05/01 14:13:39;;;;;;;3.37;1.60;;;;;;;;;;5021359;28;20734;-69
2023/05/01 14:16:10;;;;;;;2.10;1.63;;;;;;;;;;5025246;28;20235;-74
2023/05/01 14:18:46;;;;;;;2.87;1.50;;;;;;;;;;5031324;28;20190;-67
2023/05/01 14:21:16;;;;;;;2.87;1.80;;;;;;;;;;5007284;28;20223;-72
2023/05/01 14:23:43;;;;;;;3.13;1.73;;;;;;;;;;5011564;28;20192;-73
2023/05/01 14:26:10;;;;;;;2.60;1.60;;;;;;;;;;5026311;28;20199;-74
2023/05/01 14:28:41;;;;;;;8.37;2.30;;;;;;;;;;5028673;28;20608;-75
2023/05/01 14:31:08;;;;;;;4.10;1.77;;;;;;;;;;5009349;28;20530;-75
2023/05/01 14:33:40;;;;;;;4.90;1.37;;;;;;;;;;5010286;28;20191;-77
2023/05/01 14:36:07;;;;;;;3.77;1.80;;;;;;;;;;5021646;28;20299;-76
2023/05/01 14:38:38;;;;;;;4.27;1.60;;;;;;;;;;5030810;28;20281;-76
2023/05/01 14:41:04;;;;;;;5.03;1.90;;;;;;;;;;5020805;28;20218;-76
2023/05/01 14:43:31;;;;;;;3.53;1.90;;;;;;;;;;5027516;28;20658;-75
2023/05/01 14:46:00;;;;;;;2.03;1.50;;;;;;;;;;5027294;28;20187;-75
2023/05/01 14:48:33;;;;;;;2.33;1.43;;;;;;;;;;5010479;28;20211;-73
2023/05/01 14:51:00;;;;;;;3.00;1.77;;;;;;;;;;5009326;28;20207;-73
2023/05/01 14:53:32;;;;;;;3.83;1.97;;;;;;;;;;5008298;28;20437;-73
2023/05/01 14:56:02;;;;;;;4.23;1.97;;;;;;;;;;5009560;28;20190;-74
2023/05/01 14:58:29;;;;;;;3.73;1.93;;;;;;;;;;4987759;28;20190;-71
2023/05/01 15:00:56;;;;;;;2.27;1.60;;;;;;;;;;5015167;28;20198;-72
2023/05/01 15:03:23;;;;;;;1.73;1.47;;;;;;;;;;5002530;28;20697;-70
2023/05/01 15:05:51;;;;;;;4.17;1.87;;;;;;;;;;5007653;28;20532;-68
2023/05/01 15:08:18;;;;;;;4.07;1.70;;;;;;;;;;5024336;28;20224;-68
2023/05/01 15:10:45;;;;;;;2.37;1.43;;;;;;;;;;4996818;28;20272;-70
2023/05/01 15:13:11;;;;;;;3.37;1.80;;;;;;;;;;5023083;28;20195;-70
2023/05/01 15:15:38;;;;;;;3.27;1.70;;;;;;;;;;5021829;28;20206;-69
2023/05/01 15:18:07;;;;;;;5.33;2.13;;;;;;;;;;4999134;28;20188;-68
2023/05/01 15:20:36;;;;;;;2.67;1.80;;;;;;;;;;5016833;28;20210;-67
2023/05/01 15:23:03;;;;;;;2.57;1.40;;;;;;;;;;5019815;28;20219;-69
2023/05/01 15:25:31;;;;;;;2.13;1.60;;;;;;;;;;5006309;28;20195;-68